sensor_id;sensor_type;location;lat;lon;timestamp;P1;durP1;ratioP1;P2;durP2;ratioP2
65182;SDS011;51771;51.068;-1.780;2024-03-17T00:00:29;18.05;;;2.97;;
65182;SDS011;51771;51.068;-1.780;2024-03-17T00:02:54;21.70;;;3.72;;
65182;SDS011;51771;51.068;-1.780;2024-03-17T00:05:20;13.77;;;3.58;;
65182;SDS011;51771;51.068;-1.780;2024-03-17T00:07:45;11.38;;;3.03;;
65182;SDS011;51771;51.068;-1.780;2024-03-17T00:10:10;16.58;;;2.70;;
65182;SDS011;51771;51.068;-1.780;2024-03-17T00:12:35;11.90;;;2.53;;
65182;SDS011;51771;51.068;-1.780;2024-03-17T00:15:01;13.07;;;2.65;;
65182;SDS011;51771;51.068;-1.780;2024-03-17T00:17:26;17.35;;;3.65;;
65182;SDS011;51771;51.068;-1.780;2024-03-17T00:19:51;16.23;;;3.10;;
65182;SDS011;51771;51.068;-1.780;2024-03-17T00:22:17;18.33;;;3.17;;
65182;SDS011;51771;51.068;-1.780;2024-03-17T00:24:42;12.20;;;3.65;;
65182;SDS011;51771;51.068;-1.780;2024-03-17T00:27:08;18.27;;;3.25;;
65182;SDS011;51771;51.068;-1.780;2024-03-17T00:29:33;13.10;;;3.67;;
65182;SDS011;51771;51.068;-1.780;2024-03-17T00:31:58;11.57;;;3.40;;
65182;SDS011;51771;51.068;-1.780;2024-03-17T00:34:23;14.30;;;5.57;;
65182;SDS011;51771;51.068;-1.780;2024-03-17T00:36:49;17.60;;;4.70;;
65182;SDS011;51771;51.068;-1.780;2024-03-17T00:39:14;12.60;;;3.13;;
65182;SDS011;51771;51.068;-1.780;2024-03-17T00:41:39;20.08;;;4.47;;
65182;SDS011;51771;51.068;-1.780;2024-03-17T00:44:05;21.25;;;4.28;;
65182;SDS011;51771;51.068;-1.780;2024-03-17T00:46:31;18.20;;;5.15;;
65182;SDS011;51771;51.068;-1.780;2024-03-17T00:48:56;17.33;;;5.32;;
65182;SDS011;51771;51.068;-1.780;2024-03-17T00:51:22;16.47;;;5.80;;
65182;SDS011;51771;51.068;-1.780;2024-03-17T00:53:47;20.57;;;5.10;;
65182;SDS011;51771;51.068;-1.780;2024-03-17T00:56:12;43.83;;;5.60;;
65182;SDS011;51771;51.068;-1.780;2024-03-17T00:58:37;17.10;;;4.80;;
65182;SDS011;51771;51.068;-1.780;2024-03-17T01:01:03;10.93;;;4.18;;
65182;SDS011;51771;51.068;-1.780;2024-03-17T01:03:29;19.15;;;5.25;;
65182;SDS011;51771;51.068;-1.780;2024-03-17T01:05:54;19.70;;;5.60;;
65182;SDS011;51771;51.068;-1.780;2024-03-17T01:08:19;22.98;;;4.85;;
65182;SDS011;51771;51.068;-1.780;2024-03-17T01:10:45;24.52;;;4.43;;
65182;SDS011;51771;51.068;-1.780;2024-03-17T01:13:10;23.58;;;5.53;;
65182;SDS011;51771;51.068;-1.780;2024-03-17T01:15:36;19.05;;;4.65;;
65182;SDS011;51771;51.068;-1.780;2024-03-17T01:18:05;19.98;;;5.13;;
65182;SDS011;51771;51.068;-1.780;2024-03-17T01:20:31;14.40;;;4.78;;
65182;SDS011;51771;51.068;-1.780;2024-03-17T01:22:56;16.63;;;5.55;;
65182;SDS011;51771;51.068;-1.780;2024-03-17T01:25:21;13.65;;;4.03;;
65182;SDS011;51771;51.068;-1.780;2024-03-17T01:27:46;20.93;;;4.97;;
65182;SDS011;51771;51.068;-1.780;2024-03-17T01:30:12;17.30;;;4.27;;
65182;SDS011;51771;51.068;-1.780;2024-03-17T01:32:37;15.73;;;4.10;;
65182;SDS011;51771;51.068;-1.780;2024-03-17T01:35:02;16.67;;;4.85;;
65182;SDS011;51771;51.068;-1.780;2024-03-17T01:37:28;12.25;;;3.92;;
65182;SDS011;51771;51.068;-1.780;2024-03-17T01:39:56;15.77;;;4.13;;
65182;SDS011;51771;51.068;-1.780;2024-03-17T01:42:22;20.95;;;4.20;;
65182;SDS011;51771;51.068;-1.780;2024-03-17T01:44:47;16.60;;;4.03;;
65182;SDS011;51771;51.068;-1.780;2024-03-17T01:47:12;13.02;;;3.47;;
65182;SDS011;51771;51.068;-1.780;2024-03-17T01:49:38;16.52;;;3.38;;
65182;SDS011;51771;51.068;-1.780;2024-03-17T01:52:03;14.70;;;3.37;;
65182;SDS011;51771;51.068;-1.780;2024-03-17T01:54:30;21.20;;;3.53;;
65182;SDS011;51771;51.068;-1.780;2024-03-17T01:56:55;15.27;;;3.30;;
65182;SDS011;51771;51.068;-1.780;2024-03-17T01:59:21;24.10;;;4.13;;
65182;SDS011;51771;51.068;-1.780;2024-03-17T02:01:46;11.38;;;3.40;;
65182;SDS011;51771;51.068;-1.780;2024-03-17T02:04:11;13.00;;;3.43;;
65182;SDS011;51771;51.068;-1.780;2024-03-17T02:06:37;16.40;;;3.03;;
65182;SDS011;51771;51.068;-1.780;2024-03-17T02:09:02;12.97;;;2.60;;
65182;SDS011;51771;51.068;-1.780;2024-03-17T02:11:28;15.18;;;3.20;;
65182;SDS011;51771;51.068;-1.780;2024-03-17T02:13:54;13.88;;;2.70;;
65182;SDS011;51771;51.068;-1.780;2024-03-17T02:16:20;18.45;;;3.40;;
65182;SDS011;51771;51.068;-1.780;2024-03-17T02:18:45;23.30;;;4.30;;
65182;SDS011;51771;51.068;-1.780;2024-03-17T02:21:11;12.13;;;2.70;;
65182;SDS011;51771;51.068;-1.780;2024-03-17T02:23:36;10.40;;;2.67;;
65182;SDS011;51771;51.068;-1.780;2024-03-17T02:26:01;12.87;;;3.30;;
65182;SDS011;51771;51.068;-1.780;2024-03-17T02:28:27;23.73;;;2.97;;
65182;SDS011;51771;51.068;-1.780;2024-03-17T02:30:52;17.77;;;3.67;;
65182;SDS011;51771;51.068;-1.780;2024-03-17T02:33:17;13.70;;;3.60;;
65182;SDS011;51771;51.068;-1.780;2024-03-17T02:35:42;15.85;;;2.92;;
65182;SDS011;51771;51.068;-1.780;2024-03-17T02:38:09;9.25;;;2.47;;
65182;SDS011;51771;51.068;-1.780;2024-03-17T02:40:34;15.93;;;3.17;;
65182;SDS011;51771;51.068;-1.780;2024-03-17T02:42:59;16.40;;;2.63;;
65182;SDS011;51771;51.068;-1.780;2024-03-17T02:45:24;13.52;;;2.50;;
65182;SDS011;51771;51.068;-1.780;2024-03-17T02:47:50;11.57;;;2.60;;
65182;SDS011;51771;51.068;-1.780;2024-03-17T02:50:15;19.58;;;3.25;;
65182;SDS011;51771;51.068;-1.780;2024-03-17T02:52:41;18.63;;;2.58;;
65182;SDS011;51771;51.068;-1.780;2024-03-17T02:55:06;22.58;;;3.55;;
65182;SDS011;51771;51.068;-1.780;2024-03-17T02:57:31;11.52;;;2.60;;
65182;SDS011;51771;51.068;-1.780;2024-03-17T02:59:57;8.38;;;2.50;;
65182;SDS011;51771;51.068;-1.780;2024-03-17T03:02:22;9.95;;;2.40;;
65182;SDS011;51771;51.068;-1.780;2024-03-17T03:04:48;17.02;;;3.20;;
65182;SDS011;51771;51.068;-1.780;2024-03-17T03:07:13;12.50;;;2.70;;
65182;SDS011;51771;51.068;-1.780;2024-03-17T03:09:39;13.83;;;2.80;;
65182;SDS011;51771;51.068;-1.780;2024-03-17T03:12:04;11.68;;;3.03;;
65182;SDS011;51771;51.068;-1.780;2024-03-17T03:14:29;15.68;;;3.15;;
65182;SDS011;51771;51.068;-1.780;2024-03-17T03:16:55;20.63;;;3.17;;
65182;SDS011;51771;51.068;-1.780;2024-03-17T03:19:20;16.65;;;3.63;;
65182;SDS011;51771;51.068;-1.780;2024-03-17T03:21:45;11.93;;;3.17;;
65182;SDS011;51771;51.068;-1.780;2024-03-17T03:24:14;18.65;;;3.67;;
65182;SDS011;51771;51.068;-1.780;2024-03-17T03:26:39;15.93;;;3.22;;
65182;SDS011;51771;51.068;-1.780;2024-03-17T03:29:04;14.90;;;3.10;;
65182;SDS011;51771;51.068;-1.780;2024-03-17T03:31:31;17.92;;;3.65;;
65182;SDS011;51771;51.068;-1.780;2024-03-17T03:33:56;16.88;;;3.05;;
65182;SDS011;51771;51.068;-1.780;2024-03-17T03:36:22;11.82;;;2.78;;
65182;SDS011;51771;51.068;-1.780;2024-03-17T03:38:47;15.57;;;3.60;;
65182;SDS011;51771;51.068;-1.780;2024-03-17T03:41:15;19.53;;;3.90;;
65182;SDS011;51771;51.068;-1.780;2024-03-17T03:43:40;12.60;;;3.15;;
65182;SDS011;51771;51.068;-1.780;2024-03-17T03:46:06;19.85;;;2.83;;
65182;SDS011;51771;51.068;-1.780;2024-03-17T03:48:32;12.48;;;2.22;;
65182;SDS011;51771;51.068;-1.780;2024-03-17T03:50:59;17.98;;;2.45;;
65182;SDS011;51771;51.068;-1.780;2024-03-17T03:53:24;12.57;;;2.60;;
65182;SDS011;51771;51.068;-1.780;2024-03-17T03:55:49;14.77;;;3.13;;
65182;SDS011;51771;51.068;-1.780;2024-03-17T03:58:15;15.05;;;2.97;;
65182;SDS011;51771;51.068;-1.780;2024-03-17T04:00:41;12.77;;;3.25;;
65182;SDS011;51771;51.068;-1.780;2024-03-17T04:03:06;16.77;;;3.42;;
65182;SDS011;51771;51.068;-1.780;2024-03-17T04:05:31;17.83;;;4.33;;
65182;SDS011;51771;51.068;-1.780;2024-03-17T04:07:56;18.60;;;3.33;;
65182;SDS011;51771;51.068;-1.780;2024-03-17T04:10:22;17.67;;;4.13;;
65182;SDS011;51771;51.068;-1.780;2024-03-17T04:12:49;17.75;;;3.60;;
65182;SDS011;51771;51.068;-1.780;2024-03-17T04:15:14;16.67;;;3.58;;
65182;SDS011;51771;51.068;-1.780;2024-03-17T04:17:39;11.57;;;2.97;;
65182;SDS011;51771;51.068;-1.780;2024-03-17T04:20:05;13.88;;;3.40;;
65182;SDS011;51771;51.068;-1.780;2024-03-17T04:22:33;12.13;;;3.83;;
65182;SDS011;51771;51.068;-1.780;2024-03-17T04:24:58;16.45;;;3.83;;
65182;SDS011;51771;51.068;-1.780;2024-03-17T04:27:24;16.67;;;3.90;;
65182;SDS011;51771;51.068;-1.780;2024-03-17T04:29:50;17.00;;;4.43;;
65182;SDS011;51771;51.068;-1.780;2024-03-17T04:32:15;19.45;;;5.05;;
65182;SDS011;51771;51.068;-1.780;2024-03-17T04:34:40;10.50;;;3.70;;
65182;SDS011;51771;51.068;-1.780;2024-03-17T04:37:05;13.60;;;3.60;;
65182;SDS011;51771;51.068;-1.780;2024-03-17T04:39:31;15.30;;;4.43;;
65182;SDS011;51771;51.068;-1.780;2024-03-17T04:41:56;10.98;;;3.42;;
65182;SDS011;51771;51.068;-1.780;2024-03-17T04:44:21;13.25;;;3.72;;
65182;SDS011;51771;51.068;-1.780;2024-03-17T04:46:47;16.23;;;4.25;;
65182;SDS011;51771;51.068;-1.780;2024-03-17T04:49:13;10.97;;;2.90;;
65182;SDS011;51771;51.068;-1.780;2024-03-17T04:51:38;13.07;;;3.87;;
65182;SDS011;51771;51.068;-1.780;2024-03-17T04:54:03;17.90;;;4.20;;
65182;SDS011;51771;51.068;-1.780;2024-03-17T04:56:28;10.95;;;3.35;;
65182;SDS011;51771;51.068;-1.780;2024-03-17T04:58:54;15.33;;;4.30;;
65182;SDS011;51771;51.068;-1.780;2024-03-17T05:01:19;14.67;;;3.60;;
65182;SDS011;51771;51.068;-1.780;2024-03-17T05:03:45;9.18;;;3.13;;
65182;SDS011;51771;51.068;-1.780;2024-03-17T05:06:10;10.18;;;3.47;;
65182;SDS011;51771;51.068;-1.780;2024-03-17T05:08:35;10.20;;;3.17;;
65182;SDS011;51771;51.068;-1.780;2024-03-17T05:11:01;12.43;;;4.53;;
65182;SDS011;51771;51.068;-1.780;2024-03-17T05:13:36;10.35;;;3.70;;
65182;SDS011;51771;51.068;-1.780;2024-03-17T05:16:03;8.50;;;3.78;;
65182;SDS011;51771;51.068;-1.780;2024-03-17T05:18:29;12.77;;;3.40;;
65182;SDS011;51771;51.068;-1.780;2024-03-17T05:21:01;9.43;;;3.47;;
65182;SDS011;51771;51.068;-1.780;2024-03-17T05:23:31;10.27;;;2.85;;
65182;SDS011;51771;51.068;-1.780;2024-03-17T05:25:57;12.32;;;4.15;;
65182;SDS011;51771;51.068;-1.780;2024-03-17T05:28:23;9.77;;;2.88;;
65182;SDS011;51771;51.068;-1.780;2024-03-17T05:30:49;9.30;;;2.88;;
65182;SDS011;51771;51.068;-1.780;2024-03-17T05:33:15;8.90;;;2.65;;
65182;SDS011;51771;51.068;-1.780;2024-03-17T05:35:41;9.77;;;2.78;;
65182;SDS011;51771;51.068;-1.780;2024-03-17T05:38:13;4.97;;;2.33;;
65182;SDS011;51771;51.068;-1.780;2024-03-17T05:40:38;8.90;;;2.43;;
65182;SDS011;51771;51.068;-1.780;2024-03-17T05:43:06;8.43;;;2.72;;
65182;SDS011;51771;51.068;-1.780;2024-03-17T05:45:31;8.77;;;2.35;;
65182;SDS011;51771;51.068;-1.780;2024-03-17T05:47:57;8.27;;;2.38;;
65182;SDS011;51771;51.068;-1.780;2024-03-17T05:50:22;7.20;;;2.43;;
65182;SDS011;51771;51.068;-1.780;2024-03-17T05:52:47;7.77;;;2.30;;
65182;SDS011;51771;51.068;-1.780;2024-03-17T05:55:12;6.37;;;2.30;;
65182;SDS011;51771;51.068;-1.780;2024-03-17T05:57:38;7.97;;;2.50;;
65182;SDS011;51771;51.068;-1.780;2024-03-17T06:00:03;4.65;;;1.85;;
65182;SDS011;51771;51.068;-1.780;2024-03-17T06:02:28;14.02;;;3.20;;
65182;SDS011;51771;51.068;-1.780;2024-03-17T06:04:55;10.57;;;2.75;;
65182;SDS011;51771;51.068;-1.780;2024-03-17T06:07:20;14.90;;;3.10;;
65182;SDS011;51771;51.068;-1.780;2024-03-17T06:09:45;8.70;;;2.37;;
65182;SDS011;51771;51.068;-1.780;2024-03-17T06:12:12;12.82;;;2.88;;
65182;SDS011;51771;51.068;-1.780;2024-03-17T06:14:37;9.63;;;2.73;;
65182;SDS011;51771;51.068;-1.780;2024-03-17T06:17:02;11.67;;;2.63;;
65182;SDS011;51771;51.068;-1.780;2024-03-17T06:19:28;7.10;;;2.45;;
65182;SDS011;51771;51.068;-1.780;2024-03-17T06:21:53;8.90;;;2.63;;
65182;SDS011;51771;51.068;-1.780;2024-03-17T06:24:19;12.82;;;2.60;;
65182;SDS011;51771;51.068;-1.780;2024-03-17T06:26:44;8.03;;;2.60;;
65182;SDS011;51771;51.068;-1.780;2024-03-17T06:29:09;5.05;;;2.00;;
65182;SDS011;51771;51.068;-1.780;2024-03-17T06:31:34;10.80;;;2.40;;
65182;SDS011;51771;51.068;-1.780;2024-03-17T06:34:00;7.90;;;1.80;;
65182;SDS011;51771;51.068;-1.780;2024-03-17T06:36:25;6.87;;;1.63;;
65182;SDS011;51771;51.068;-1.780;2024-03-17T06:38:50;6.20;;;2.05;;
65182;SDS011;51771;51.068;-1.780;2024-03-17T06:41:16;5.05;;;1.65;;
65182;SDS011;51771;51.068;-1.780;2024-03-17T06:43:41;9.53;;;1.70;;
65182;SDS011;51771;51.068;-1.780;2024-03-17T06:46:09;7.97;;;2.00;;
65182;SDS011;51771;51.068;-1.780;2024-03-17T06:48:34;7.82;;;2.10;;
65182;SDS011;51771;51.068;-1.780;2024-03-17T06:51:00;6.43;;;1.45;;
65182;SDS011;51771;51.068;-1.780;2024-03-17T06:53:25;4.53;;;1.20;;
65182;SDS011;51771;51.068;-1.780;2024-03-17T06:55:52;4.88;;;1.33;;
65182;SDS011;51771;51.068;-1.780;2024-03-17T06:58:18;3.97;;;1.58;;
65182;SDS011;51771;51.068;-1.780;2024-03-17T07:00:57;5.10;;;1.17;;
65182;SDS011;51771;51.068;-1.780;2024-03-17T07:03:23;4.72;;;1.25;;
65182;SDS011;51771;51.068;-1.780;2024-03-17T07:05:52;5.22;;;1.20;;
65182;SDS011;51771;51.068;-1.780;2024-03-17T07:08:18;4.32;;;1.45;;
65182;SDS011;51771;51.068;-1.780;2024-03-17T07:10:54;4.72;;;1.50;;
65182;SDS011;51771;51.068;-1.780;2024-03-17T07:13:19;6.88;;;1.23;;
65182;SDS011;51771;51.068;-1.780;2024-03-17T07:15:47;3.47;;;1.73;;
65182;SDS011;51771;51.068;-1.780;2024-03-17T07:20:38;4.13;;;1.05;;
65182;SDS011;51771;51.068;-1.780;2024-03-17T07:23:03;3.22;;;1.20;;
65182;SDS011;51771;51.068;-1.780;2024-03-17T07:25:28;3.88;;;1.20;;
65182;SDS011;51771;51.068;-1.780;2024-03-17T07:27:54;2.80;;;1.00;;
65182;SDS011;51771;51.068;-1.780;2024-03-17T07:30:19;5.27;;;1.50;;
65182;SDS011;51771;51.068;-1.780;2024-03-17T07:32:44;5.53;;;1.03;;
65182;SDS011;51771;51.068;-1.780;2024-03-17T07:35:09;4.77;;;1.70;;
65182;SDS011;51771;51.068;-1.780;2024-03-17T07:37:34;4.57;;;1.23;;
65182;SDS011;51771;51.068;-1.780;2024-03-17T07:39:59;8.73;;;1.33;;
65182;SDS011;51771;51.068;-1.780;2024-03-17T07:42:25;3.90;;;1.00;;
65182;SDS011;51771;51.068;-1.780;2024-03-17T07:44:51;6.70;;;1.20;;
65182;SDS011;51771;51.068;-1.780;2024-03-17T07:47:16;4.20;;;1.60;;
65182;SDS011;51771;51.068;-1.780;2024-03-17T07:49:41;6.07;;;1.27;;
65182;SDS011;51771;51.068;-1.780;2024-03-17T07:52:06;8.07;;;1.27;;
65182;SDS011;51771;51.068;-1.780;2024-03-17T07:54:31;4.23;;;1.30;;
65182;SDS011;51771;51.068;-1.780;2024-03-17T07:56:57;4.33;;;1.30;;
65182;SDS011;51771;51.068;-1.780;2024-03-17T07:59:22;5.33;;;1.30;;
65182;SDS011;51771;51.068;-1.780;2024-03-17T08:01:47;6.53;;;1.27;;
65182;SDS011;51771;51.068;-1.780;2024-03-17T08:04:12;5.57;;;1.40;;
65182;SDS011;51771;51.068;-1.780;2024-03-17T08:06:40;4.75;;;1.30;;
65182;SDS011;51771;51.068;-1.780;2024-03-17T08:09:06;4.15;;;1.55;;
65182;SDS011;51771;51.068;-1.780;2024-03-17T08:11:32;8.88;;;1.80;;
65182;SDS011;51771;51.068;-1.780;2024-03-17T08:13:58;7.00;;;1.60;;
65182;SDS011;51771;51.068;-1.780;2024-03-17T08:16:24;8.68;;;1.90;;
65182;SDS011;51771;51.068;-1.780;2024-03-17T08:18:49;8.77;;;2.07;;
65182;SDS011;51771;51.068;-1.780;2024-03-17T08:21:14;7.70;;;2.13;;
65182;SDS011;51771;51.068;-1.780;2024-03-17T08:23:39;6.90;;;1.40;;
65182;SDS011;51771;51.068;-1.780;2024-03-17T08:26:08;10.20;;;1.77;;
65182;SDS011;51771;51.068;-1.780;2024-03-17T08:28:33;6.88;;;1.90;;
65182;SDS011;51771;51.068;-1.780;2024-03-17T08:30:59;11.87;;;1.83;;
65182;SDS011;51771;51.068;-1.780;2024-03-17T08:33:25;5.30;;;1.95;;
65182;SDS011;51771;51.068;-1.780;2024-03-17T08:35:54;7.15;;;1.88;;
65182;SDS011;51771;51.068;-1.780;2024-03-17T08:38:20;9.13;;;1.80;;
65182;SDS011;51771;51.068;-1.780;2024-03-17T08:40:45;5.93;;;1.70;;
65182;SDS011;51771;51.068;-1.780;2024-03-17T08:43:10;8.25;;;2.03;;
65182;SDS011;51771;51.068;-1.780;2024-03-17T08:45:35;6.75;;;2.10;;
65182;SDS011;51771;51.068;-1.780;2024-03-17T08:48:01;6.13;;;1.47;;
65182;SDS011;51771;51.068;-1.780;2024-03-17T08:50:26;4.63;;;1.37;;
65182;SDS011;51771;51.068;-1.780;2024-03-17T08:52:51;6.45;;;1.70;;
65182;SDS011;51771;51.068;-1.780;2024-03-17T08:55:16;4.57;;;1.40;;
65182;SDS011;51771;51.068;-1.780;2024-03-17T08:57:42;6.95;;;1.38;;
65182;SDS011;51771;51.068;-1.780;2024-03-17T09:00:07;6.10;;;1.40;;
65182;SDS011;51771;51.068;-1.780;2024-03-17T09:02:34;6.68;;;1.65;;
65182;SDS011;51771;51.068;-1.780;2024-03-17T09:04:59;10.93;;;2.40;;
65182;SDS011;51771;51.068;-1.780;2024-03-17T09:07:24;6.33;;;1.90;;
65182;SDS011;51771;51.068;-1.780;2024-03-17T09:09:49;7.37;;;1.73;;
65182;SDS011;51771;51.068;-1.780;2024-03-17T09:12:14;7.10;;;1.80;;
65182;SDS011;51771;51.068;-1.780;2024-03-17T09:14:40;5.47;;;2.03;;
65182;SDS011;51771;51.068;-1.780;2024-03-17T09:17:06;5.88;;;2.13;;
65182;SDS011;51771;51.068;-1.780;2024-03-17T09:19:31;9.57;;;2.22;;
65182;SDS011;51771;51.068;-1.780;2024-03-17T09:21:58;5.40;;;1.90;;
65182;SDS011;51771;51.068;-1.780;2024-03-17T09:24:24;6.00;;;2.03;;
65182;SDS011;51771;51.068;-1.780;2024-03-17T09:26:49;7.05;;;2.22;;
65182;SDS011;51771;51.068;-1.780;2024-03-17T09:29:14;7.10;;;2.03;;
65182;SDS011;51771;51.068;-1.780;2024-03-17T09:34:08;6.60;;;2.45;;
65182;SDS011;51771;51.068;-1.780;2024-03-17T09:36:34;7.72;;;2.78;;
65182;SDS011;51771;51.068;-1.780;2024-03-17T09:38:59;6.15;;;2.85;;
65182;SDS011;51771;51.068;-1.780;2024-03-17T09:41:27;5.57;;;2.10;;
65182;SDS011;51771;51.068;-1.780;2024-03-17T09:43:54;6.82;;;2.47;;
65182;SDS011;51771;51.068;-1.780;2024-03-17T09:46:19;6.97;;;2.83;;
65182;SDS011;51771;51.068;-1.780;2024-03-17T09:48:45;9.85;;;2.65;;
65182;SDS011;51771;51.068;-1.780;2024-03-17T09:51:16;10.50;;;2.57;;
65182;SDS011;51771;51.068;-1.780;2024-03-17T09:53:42;6.13;;;2.67;;
65182;SDS011;51771;51.068;-1.780;2024-03-17T09:56:14;7.70;;;2.37;;
65182;SDS011;51771;51.068;-1.780;2024-03-17T09:58:44;9.10;;;2.88;;
65182;SDS011;51771;51.068;-1.780;2024-03-17T10:01:09;11.15;;;2.97;;
65182;SDS011;51771;51.068;-1.780;2024-03-17T10:06:16;6.82;;;2.58;;
65182;SDS011;51771;51.068;-1.780;2024-03-17T10:11:13;7.28;;;2.38;;
65182;SDS011;51771;51.068;-1.780;2024-03-17T10:13:40;6.28;;;2.35;;
65182;SDS011;51771;51.068;-1.780;2024-03-17T10:16:05;6.30;;;2.00;;
65182;SDS011;51771;51.068;-1.780;2024-03-17T10:18:31;8.50;;;2.00;;
65182;SDS011;51771;51.068;-1.780;2024-03-17T10:20:56;9.98;;;2.05;;
65182;SDS011;51771;51.068;-1.780;2024-03-17T10:23:23;6.78;;;2.40;;
65182;SDS011;51771;51.068;-1.780;2024-03-17T10:25:48;4.97;;;1.53;;
65182;SDS011;51771;51.068;-1.780;2024-03-17T10:28:14;7.28;;;1.77;;
65182;SDS011;51771;51.068;-1.780;2024-03-17T10:30:40;4.63;;;1.83;;
65182;SDS011;51771;51.068;-1.780;2024-03-17T10:33:06;4.82;;;1.50;;
65182;SDS011;51771;51.068;-1.780;2024-03-17T10:35:34;3.58;;;1.13;;
65182;SDS011;51771;51.068;-1.780;2024-03-17T10:38:00;4.07;;;1.52;;
65182;SDS011;51771;51.068;-1.780;2024-03-17T10:40:25;4.90;;;1.52;;
65182;SDS011;51771;51.068;-1.780;2024-03-17T10:42:51;3.13;;;1.20;;
65182;SDS011;51771;51.068;-1.780;2024-03-17T10:45:17;2.83;;;1.08;;
65182;SDS011;51771;51.068;-1.780;2024-03-17T10:47:52;3.92;;;1.00;;
65182;SDS011;51771;51.068;-1.780;2024-03-17T10:50:20;3.03;;;0.90;;
65182;SDS011;51771;51.068;-1.780;2024-03-17T10:52:47;4.47;;;1.02;;
65182;SDS011;51771;51.068;-1.780;2024-03-17T10:55:19;2.10;;;0.88;;
65182;SDS011;51771;51.068;-1.780;2024-03-17T10:57:45;3.85;;;1.05;;
65182;SDS011;51771;51.068;-1.780;2024-03-17T11:00:14;6.15;;;1.27;;
65182;SDS011;51771;51.068;-1.780;2024-03-17T11:02:42;3.63;;;1.00;;
65182;SDS011;51771;51.068;-1.780;2024-03-17T11:05:11;2.40;;;0.90;;
65182;SDS011;51771;51.068;-1.780;2024-03-17T11:07:38;3.30;;;1.13;;
65182;SDS011;51771;51.068;-1.780;2024-03-17T11:10:08;3.38;;;0.90;;
65182;SDS011;51771;51.068;-1.780;2024-03-17T11:12:41;3.80;;;1.00;;
65182;SDS011;51771;51.068;-1.780;2024-03-17T11:17:44;2.72;;;0.88;;
65182;SDS011;51771;51.068;-1.780;2024-03-17T11:20:17;4.32;;;1.10;;
65182;SDS011;51771;51.068;-1.780;2024-03-17T11:33:06;5.57;;;1.52;;
65182;SDS011;51771;51.068;-1.780;2024-03-17T11:35:49;3.38;;;1.30;;
65182;SDS011;51771;51.068;-1.780;2024-03-17T11:43:42;2.85;;;0.90;;
65182;SDS011;51771;51.068;-1.780;2024-03-17T11:46:09;2.97;;;1.17;;
65182;SDS011;51771;51.068;-1.780;2024-03-17T11:48:35;4.32;;;1.17;;
65182;SDS011;51771;51.068;-1.780;2024-03-17T11:51:02;3.90;;;0.82;;
65182;SDS011;51771;51.068;-1.780;2024-03-17T11:53:27;3.08;;;0.88;;
65182;SDS011;51771;51.068;-1.780;2024-03-17T11:55:53;1.15;;;0.50;;
65182;SDS011;51771;51.068;-1.780;2024-03-17T11:58:18;1.17;;;0.50;;
65182;SDS011;51771;51.068;-1.780;2024-03-17T12:00:44;2.33;;;0.60;;
65182;SDS011;51771;51.068;-1.780;2024-03-17T12:03:16;1.92;;;0.50;;
65182;SDS011;51771;51.068;-1.780;2024-03-17T12:05:41;1.10;;;0.47;;
65182;SDS011;51771;51.068;-1.780;2024-03-17T12:08:17;1.95;;;0.50;;
65182;SDS011;51771;51.068;-1.780;2024-03-17T12:10:47;2.22;;;0.77;;
65182;SDS011;51771;51.068;-1.780;2024-03-17T12:13:13;1.90;;;0.50;;
65182;SDS011;51771;51.068;-1.780;2024-03-17T12:15:38;2.07;;;0.60;;
65182;SDS011;51771;51.068;-1.780;2024-03-17T12:18:03;1.00;;;0.40;;
65182;SDS011;51771;51.068;-1.780;2024-03-17T12:20:28;0.73;;;0.38;;
65182;SDS011;51771;51.068;-1.780;2024-03-17T12:22:54;2.67;;;0.80;;
65182;SDS011;51771;51.068;-1.780;2024-03-17T12:25:20;2.40;;;0.50;;
65182;SDS011;51771;51.068;-1.780;2024-03-17T12:27:45;0.50;;;0.20;;
65182;SDS011;51771;51.068;-1.780;2024-03-17T12:30:11;7.15;;;0.80;;
65182;SDS011;51771;51.068;-1.780;2024-03-17T12:32:37;0.73;;;0.30;;
65182;SDS011;51771;51.068;-1.780;2024-03-17T12:35:02;1.05;;;0.30;;
65182;SDS011;51771;51.068;-1.780;2024-03-17T12:37:28;0.88;;;0.30;;
65182;SDS011;51771;51.068;-1.780;2024-03-17T12:39:58;3.25;;;0.65;;
65182;SDS011;51771;51.068;-1.780;2024-03-17T12:42:25;4.50;;;0.93;;
65182;SDS011;51771;51.068;-1.780;2024-03-17T12:44:51;2.35;;;0.65;;
65182;SDS011;51771;51.068;-1.780;2024-03-17T12:49:46;1.58;;;0.40;;
65182;SDS011;51771;51.068;-1.780;2024-03-17T12:52:18;4.60;;;0.85;;
65182;SDS011;51771;51.068;-1.780;2024-03-17T12:54:44;2.78;;;0.77;;
65182;SDS011;51771;51.068;-1.780;2024-03-17T12:57:17;0.90;;;0.30;;
65182;SDS011;51771;51.068;-1.780;2024-03-17T13:00:16;4.38;;;0.60;;
65182;SDS011;51771;51.068;-1.780;2024-03-17T13:02:56;2.35;;;0.63;;
65182;SDS011;51771;51.068;-1.780;2024-03-17T13:05:22;1.88;;;0.52;;
65182;SDS011;51771;51.068;-1.780;2024-03-17T13:07:48;1.42;;;0.43;;
65182;SDS011;51771;51.068;-1.780;2024-03-17T13:10:14;1.85;;;0.60;;
65182;SDS011;51771;51.068;-1.780;2024-03-17T13:12:39;2.53;;;0.68;;
65182;SDS011;51771;51.068;-1.780;2024-03-17T13:15:04;3.00;;;0.63;;
65182;SDS011;51771;51.068;-1.780;2024-03-17T13:17:30;2.50;;;0.50;;
65182;SDS011;51771;51.068;-1.780;2024-03-17T13:19:58;5.70;;;0.82;;
65182;SDS011;51771;51.068;-1.780;2024-03-17T13:22:24;2.75;;;0.60;;
65182;SDS011;51771;51.068;-1.780;2024-03-17T13:24:49;2.08;;;0.50;;
65182;SDS011;51771;51.068;-1.780;2024-03-17T13:27:14;5.40;;;1.00;;
65182;SDS011;51771;51.068;-1.780;2024-03-17T13:29:40;3.97;;;0.80;;
65182;SDS011;51771;51.068;-1.780;2024-03-17T13:32:09;2.55;;;0.65;;
65182;SDS011;51771;51.068;-1.780;2024-03-17T13:34:34;3.47;;;0.77;;
65182;SDS011;51771;51.068;-1.780;2024-03-17T13:36:59;6.68;;;0.95;;
65182;SDS011;51771;51.068;-1.780;2024-03-17T13:39:32;10.07;;;1.55;;
65182;SDS011;51771;51.068;-1.780;2024-03-17T13:41:58;3.53;;;1.13;;
65182;SDS011;51771;51.068;-1.780;2024-03-17T13:44:31;4.22;;;0.90;;
65182;SDS011;51771;51.068;-1.780;2024-03-17T13:46:57;4.75;;;1.30;;
65182;SDS011;51771;51.068;-1.780;2024-03-17T13:49:23;8.75;;;1.75;;
65182;SDS011;51771;51.068;-1.780;2024-03-17T13:51:48;4.57;;;0.73;;
65182;SDS011;51771;51.068;-1.780;2024-03-17T13:54:13;5.53;;;1.43;;
65182;SDS011;51771;51.068;-1.780;2024-03-17T13:56:40;4.73;;;1.10;;
65182;SDS011;51771;51.068;-1.780;2024-03-17T13:59:05;4.70;;;1.27;;
65182;SDS011;51771;51.068;-1.780;2024-03-17T14:01:30;9.60;;;1.67;;
65182;SDS011;51771;51.068;-1.780;2024-03-17T14:03:55;6.03;;;1.10;;
65182;SDS011;51771;51.068;-1.780;2024-03-17T14:06:20;4.50;;;1.27;;
65182;SDS011;51771;51.068;-1.780;2024-03-17T14:08:46;7.10;;;1.40;;
65182;SDS011;51771;51.068;-1.780;2024-03-17T14:11:11;5.00;;;1.20;;
65182;SDS011;51771;51.068;-1.780;2024-03-17T14:13:36;5.00;;;1.30;;
65182;SDS011;51771;51.068;-1.780;2024-03-17T14:16:02;4.50;;;0.97;;
65182;SDS011;51771;51.068;-1.780;2024-03-17T14:18:27;5.25;;;0.90;;
65182;SDS011;51771;51.068;-1.780;2024-03-17T14:20:52;7.63;;;1.33;;
65182;SDS011;51771;51.068;-1.780;2024-03-17T14:23:17;8.30;;;1.23;;
65182;SDS011;51771;51.068;-1.780;2024-03-17T14:25:42;7.60;;;1.40;;
65182;SDS011;51771;51.068;-1.780;2024-03-17T14:28:08;9.60;;;1.90;;
65182;SDS011;51771;51.068;-1.780;2024-03-17T14:30:33;10.17;;;1.50;;
65182;SDS011;51771;51.068;-1.780;2024-03-17T14:32:58;11.77;;;1.87;;
65182;SDS011;51771;51.068;-1.780;2024-03-17T14:35:24;7.53;;;1.20;;
65182;SDS011;51771;51.068;-1.780;2024-03-17T14:37:51;5.50;;;1.33;;
65182;SDS011;51771;51.068;-1.780;2024-03-17T14:40:17;6.40;;;1.20;;
65182;SDS011;51771;51.068;-1.780;2024-03-17T14:42:49;5.03;;;1.10;;
65182;SDS011;51771;51.068;-1.780;2024-03-17T14:45:15;5.78;;;1.10;;
65182;SDS011;51771;51.068;-1.780;2024-03-17T14:47:40;6.25;;;0.70;;
65182;SDS011;51771;51.068;-1.780;2024-03-17T14:50:05;6.53;;;1.00;;
65182;SDS011;51771;51.068;-1.780;2024-03-17T14:52:31;7.90;;;0.98;;